createdAt,value
2023-04-27T00:00:34.739Z,242.66
2023-04-27T00:01:34.772Z,242.53
2023-04-27T00:02:34.889Z,242.81
2023-04-27T00:03:34.966Z,241.55
2023-04-27T00:04:35.057Z,241.03
2023-04-27T00:05:34.983Z,242.94
2023-04-27T00:06:34.959Z,241.24
2023-04-27T00:07:34.974Z,241.38
2023-04-27T00:08:35.040Z,242.81
2023-04-27T00:09:35.076Z,242.49
2023-04-27T00:10:35.114Z,243.28
2023-04-27T00:11:35.122Z,243.24
2023-04-27T00:12:35.205Z,243.11
2023-04-27T00:13:35.204Z,243.05
2023-04-27T00:14:35.287Z,242.97
2023-04-27T00:15:35.279Z,242.08
2023-04-27T00:16:35.476Z,240.96
2023-04-27T00:17:35.439Z,242.45
2023-04-27T00:18:35.453Z,243.66
2023-04-27T00:19:35.514Z,242.15
2023-04-27T00:20:35.519Z,243.51
2023-04-27T00:21:35.581Z,243.34
2023-04-27T00:22:35.569Z,241.54
2023-04-27T00:23:35.606Z,240.33
2023-04-27T00:24:35.663Z,241.47
2023-04-27T00:25:35.700Z,241.11
2023-04-27T00:26:35.774Z,243.00
2023-04-27T00:27:35.781Z,240.38
2023-04-27T00:28:35.827Z,242.15
2023-04-27T00:29:35.844Z,240.92
2023-04-27T00:30:35.939Z,242.07
2023-04-27T00:31:35.998Z,241.98
2023-04-27T00:32:36.041Z,241.72
2023-04-27T00:33:36.064Z,240.43
2023-04-27T00:34:36.072Z,240.74
2023-04-27T00:35:36.149Z,240.52
2023-04-27T00:36:36.151Z,240.54
2023-04-27T00:37:36.220Z,242.02
2023-04-27T00:38:36.273Z,242.06
2023-04-27T00:39:36.314Z,240.73
2023-04-27T00:40:36.336Z,240.53
2023-04-27T00:41:36.384Z,241.20
2023-04-27T00:42:36.427Z,240.48
2023-04-27T00:43:36.446Z,240.99
2023-04-27T00:44:38.063Z,239.83
2023-04-27T00:45:36.567Z,241.77
2023-04-27T00:46:36.499Z,240.61
2023-04-27T00:47:36.481Z,240.32
2023-04-27T00:48:36.466Z,241.51
2023-04-27T00:49:36.485Z,241.71
2023-04-27T00:50:36.449Z,241.48
2023-04-27T00:51:36.453Z,241.99
2023-04-27T00:52:36.465Z,241.30
2023-04-27T00:53:36.457Z,240.12
2023-04-27T00:54:36.431Z,241.01
2023-04-27T00:55:36.421Z,241.40
2023-04-27T00:56:36.422Z,241.09
2023-04-27T00:57:36.388Z,239.85
2023-04-27T00:58:36.398Z,242.35
2023-04-27T00:59:36.404Z,239.98
2023-04-27T01:00:36.389Z,239.52
2023-04-27T01:01:36.396Z,239.42
2023-04-27T01:02:36.464Z,241.25
2023-04-27T01:03:36.533Z,239.17
2023-04-27T01:04:36.628Z,239.34
2023-04-27T01:05:36.345Z,239.09
2023-04-27T01:06:36.303Z,240.61
2023-04-27T01:07:36.351Z,240.05
2023-04-27T01:08:36.286Z,241.57
2023-04-27T01:09:36.288Z,239.91
2023-04-27T01:10:36.302Z,238.46
2023-04-27T01:11:36.318Z,240.09
2023-04-27T01:12:36.280Z,238.59
2023-04-27T01:13:36.244Z,238.41
2023-04-27T01:14:36.301Z,239.69
2023-04-27T01:15:36.249Z,238.77
2023-04-27T01:16:36.255Z,240.82
2023-04-27T01:17:36.272Z,240.13
2023-04-27T01:18:36.289Z,238.81
2023-04-27T01:19:36.226Z,240.61
2023-04-27T01:20:36.234Z,238.90
2023-04-27T01:21:36.196Z,240.39
2023-04-27T01:22:36.210Z,240.84
2023-04-27T01:23:36.183Z,240.14
2023-04-27T01:24:36.193Z,240.24
2023-04-27T01:25:36.203Z,238.84
2023-04-27T01:26:36.167Z,239.00
2023-04-27T01:27:36.182Z,238.54
2023-04-27T01:28:36.131Z,239.22
2023-04-27T01:29:36.193Z,239.01
2023-04-27T01:30:36.137Z,239.55
2023-04-27T01:31:36.271Z,240.52
2023-04-27T01:32:36.234Z,238.50
2023-04-27T01:33:36.281Z,237.81
2023-04-27T01:34:36.322Z,239.26
2023-04-27T01:35:36.368Z,239.06
2023-04-27T01:36:36.483Z,240.59
2023-04-27T01:37:36.525Z,239.28
2023-04-27T01:38:36.512Z,239.05
2023-04-27T01:39:36.536Z,239.91
2023-04-27T01:40:36.578Z,239.37
2023-04-27T01:41:36.628Z,240.30
2023-04-27T01:42:36.701Z,239.16
2023-04-27T01:43:36.747Z,239.88
2023-04-27T01:44:36.804Z,239.51
2023-04-27T01:45:36.866Z,239.82
2023-04-27T01:46:36.920Z,240.81
2023-04-27T01:47:36.995Z,239.90
2023-04-27T01:48:36.969Z,239.69
2023-04-27T01:49:37.015Z,239.16
2023-04-27T01:50:37.062Z,239.21
2023-04-27T01:51:37.111Z,239.37
2023-04-27T01:52:37.126Z,239.21
2023-04-27T01:53:37.207Z,239.36
2023-04-27T01:54:37.263Z,237.51
2023-04-27T01:55:37.292Z,239.81
2023-04-27T01:56:37.338Z,237.03
2023-04-27T01:57:37.366Z,239.32
2023-04-27T01:58:37.468Z,240.47
2023-04-27T01:59:37.457Z,238.00
2023-04-27T02:00:37.534Z,239.01
2023-04-27T02:01:37.606Z,239.62
2023-04-27T02:02:37.864Z,238.16
2023-04-27T02:03:37.822Z,239.07
2023-04-27T02:04:37.771Z,238.09
2023-04-27T02:05:37.774Z,240.36
2023-04-27T02:06:37.777Z,239.95
2023-04-27T02:07:37.819Z,237.46
2023-04-27T02:08:37.849Z,239.05
2023-04-27T02:09:38.013Z,238.76
2023-04-27T02:10:37.976Z,238.75
2023-04-27T02:11:38.019Z,239.59
2023-04-27T02:12:38.066Z,239.46
2023-04-27T02:13:38.116Z,240.35
2023-04-27T02:14:38.141Z,236.97
2023-04-27T02:15:38.187Z,239.31
2023-04-27T02:16:38.347Z,237.26
2023-04-27T02:17:38.372Z,237.92
2023-04-27T02:18:38.390Z,237.93
2023-04-27T02:19:38.394Z,237.51
2023-04-27T02:20:38.416Z,238.09
2023-04-27T02:21:38.500Z,239.40
2023-04-27T02:22:38.579Z,239.74
2023-04-27T02:23:38.603Z,237.55
2023-04-27T02:24:38.577Z,237.42
2023-04-27T02:25:38.675Z,239.08
2023-04-27T02:26:38.749Z,237.60
2023-04-27T02:27:38.743Z,238.21
2023-04-27T02:28:38.789Z,236.98
2023-04-27T02:29:38.918Z,237.61
2023-04-27T02:30:38.886Z,237.55
2023-04-27T02:31:38.988Z,237.90
2023-04-27T02:32:38.999Z,238.14
2023-04-27T02:33:39.033Z,239.64
2023-04-27T02:34:39.068Z,238.56
2023-04-27T02:35:39.132Z,238.18
2023-04-27T02:36:39.190Z,236.53
2023-04-27T02:37:39.213Z,237.57
2023-04-27T02:38:39.275Z,238.78
2023-04-27T02:39:39.294Z,238.91
2023-04-27T02:40:39.344Z,238.23
2023-04-27T02:41:39.395Z,237.76
2023-04-27T02:42:39.415Z,237.33
2023-04-27T02:43:39.474Z,238.33
2023-04-27T02:44:39.508Z,236.02
2023-04-27T02:45:39.605Z,237.07
2023-04-27T02:46:39.694Z,236.55
2023-04-27T02:47:39.686Z,236.45
2023-04-27T02:48:39.756Z,238.12
2023-04-27T02:49:39.733Z,238.07
2023-04-27T02:50:39.822Z,237.45
2023-04-27T02:51:39.853Z,237.11
2023-04-27T02:52:39.902Z,236.34
2023-04-27T02:53:39.941Z,237.79
2023-04-27T02:54:39.987Z,237.60
2023-04-27T02:55:40.112Z,236.68
2023-04-27T02:56:40.094Z,236.76
2023-04-27T02:57:41.097Z,238.08
2023-04-27T02:58:40.177Z,237.95
2023-04-27T02:59:40.232Z,235.93
2023-04-27T03:00:40.269Z,236.87
2023-04-27T03:01:40.532Z,236.42
2023-04-27T03:02:40.511Z,235.78
2023-04-27T03:03:40.570Z,235.91
2023-04-27T03:04:40.543Z,235.14
2023-04-27T03:05:40.545Z,234.69
2023-04-27T03:06:40.579Z,235.85
2023-04-27T03:07:40.606Z,237.18
2023-04-27T03:08:40.648Z,236.79
2023-04-27T03:09:40.720Z,236.12
2023-04-27T03:10:40.775Z,236.15
2023-04-27T03:11:40.808Z,235.40
2023-04-27T03:12:40.882Z,234.71
2023-04-27T03:13:40.949Z,237.08
2023-04-27T03:14:41.009Z,236.85
2023-04-27T03:15:41.015Z,236.68
2023-04-27T03:16:41.149Z,236.00
2023-04-27T03:17:41.135Z,237.45
2023-04-27T03:18:41.174Z,236.77
2023-04-27T03:19:41.241Z,237.31
2023-04-27T03:20:41.297Z,234.51
2023-04-27T03:21:41.364Z,236.45
2023-04-27T03:22:41.416Z,234.13
2023-04-27T03:23:41.480Z,235.80
2023-04-27T03:24:41.529Z,236.52
2023-04-27T03:25:41.632Z,235.39
2023-04-27T03:26:41.620Z,237.38
2023-04-27T03:27:41.635Z,236.09
2023-04-27T03:28:41.824Z,236.10
2023-04-27T03:29:41.773Z,236.62
2023-04-27T03:30:41.866Z,237.45
2023-04-27T03:31:41.993Z,235.62
2023-04-27T03:32:42.041Z,235.39
2023-04-27T03:33:42.007Z,236.56
2023-04-27T03:34:41.995Z,236.01
2023-04-27T03:35:42.076Z,237.08
2023-04-27T03:36:42.117Z,235.30
2023-04-27T03:37:42.203Z,234.21
2023-04-27T03:38:42.219Z,235.09
2023-04-27T03:39:42.265Z,235.29
2023-04-27T03:40:42.308Z,235.83
2023-04-27T03:41:42.355Z,235.02
2023-04-27T03:42:42.424Z,235.61
2023-04-27T03:43:42.479Z,235.52
2023-04-27T03:44:42.512Z,236.48
2023-04-27T03:45:42.568Z,237.02
2023-04-27T03:46:42.594Z,235.12
2023-04-27T03:47:42.688Z,235.66
2023-04-27T03:48:42.699Z,235.55
2023-04-27T03:49:42.778Z,235.73
2023-04-27T03:50:42.780Z,236.11
2023-04-27T03:51:42.825Z,235.94
2023-04-27T03:52:42.895Z,233.59
2023-04-27T03:53:43.021Z,233.05
2023-04-27T03:54:42.980Z,235.72
2023-04-27T03:55:43.053Z,233.71
2023-04-27T03:56:43.135Z,235.32
2023-04-27T03:57:43.140Z,236.01
2023-04-27T03:58:43.222Z,236.79
2023-04-27T03:59:43.279Z,235.65
2023-04-27T04:00:43.321Z,235.20
2023-04-27T04:01:43.365Z,236.39
2023-04-27T04:02:44.514Z,238.17
2023-04-27T04:03:43.621Z,234.72
2023-04-27T04:04:43.712Z,228.61
2023-04-27T04:05:43.602Z,228.86
2023-04-27T04:06:43.617Z,225.45
2023-04-27T04:07:43.666Z,211.06
2023-04-27T04:08:43.668Z,202.63
2023-04-27T04:09:43.726Z,197.05
2023-04-27T04:10:43.798Z,195.17
2023-04-27T04:11:43.848Z,195.02
2023-04-27T04:12:43.898Z,196.53
2023-04-27T04:13:43.947Z,189.04
2023-04-27T04:14:43.975Z,191.39
2023-04-27T04:15:44.102Z,191.38
2023-04-27T04:16:44.045Z,188.63
2023-04-27T04:17:44.147Z,187.04
2023-04-27T04:18:44.201Z,185.35
2023-04-27T04:19:44.215Z,182.32
2023-04-27T04:20:44.287Z,181.93
2023-04-27T04:21:44.340Z,178.53
2023-04-27T04:22:44.417Z,182.05
2023-04-27T04:23:44.412Z,180.34
2023-04-27T04:24:44.453Z,183.11
2023-04-27T04:25:44.505Z,181.85
2023-04-27T04:26:44.581Z,180.51
2023-04-27T04:27:44.706Z,175.65
2023-04-27T04:28:44.670Z,175.91
2023-04-27T04:29:44.712Z,174.39
2023-04-27T04:30:44.736Z,175.46
2023-04-27T04:31:44.856Z,177.19
2023-04-27T04:32:45.010Z,184.85
2023-04-27T04:33:44.924Z,189.73
2023-04-27T04:34:44.930Z,190.98
2023-04-27T04:35:45.052Z,191.92
2023-04-27T04:36:45.005Z,192.50
2023-04-27T04:37:45.095Z,191.87
2023-04-27T04:38:45.124Z,194.30
2023-04-27T04:39:45.202Z,194.42
2023-04-27T04:40:46.078Z,194.86
2023-04-27T04:41:45.321Z,198.10
2023-04-27T04:42:45.389Z,198.70
2023-04-27T04:43:45.373Z,199.48
2023-04-27T04:44:45.482Z,199.04
2023-04-27T04:45:45.513Z,202.95
2023-04-27T04:46:45.631Z,202.98
2023-04-27T04:47:45.642Z,203.67
2023-04-27T04:48:45.638Z,203.83
2023-04-27T04:49:45.755Z,204.53
2023-04-27T04:50:45.759Z,203.09
2023-04-27T04:51:45.823Z,207.60
2023-04-27T04:52:45.873Z,210.76
2023-04-27T04:53:45.911Z,211.01
2023-04-27T04:54:45.999Z,211.75
2023-04-27T04:55:46.046Z,210.33
2023-04-27T04:56:46.081Z,212.05
2023-04-27T04:57:46.114Z,210.91
2023-04-27T04:58:46.171Z,212.77
2023-04-27T04:59:46.185Z,215.19
2023-04-27T05:00:46.236Z,216.35
2023-04-27T05:01:46.371Z,217.47
2023-04-27T05:02:46.506Z,215.45
2023-04-27T05:03:46.592Z,214.83
2023-04-27T05:04:46.634Z,215.20
2023-04-27T05:05:46.509Z,212.98
2023-04-27T05:06:46.592Z,209.93
2023-04-27T05:07:46.624Z,208.61
2023-04-27T05:08:46.680Z,209.89
2023-04-27T05:09:46.733Z,212.30
2023-04-27T05:10:46.825Z,212.50
2023-04-27T05:11:46.841Z,214.22
2023-04-27T05:12:46.928Z,214.93
2023-04-27T05:13:46.982Z,212.03
2023-04-27T05:14:47.052Z,216.97
2023-04-27T05:15:47.090Z,213.16
2023-04-27T05:16:47.187Z,211.97
2023-04-27T05:17:47.212Z,214.17
2023-04-27T05:18:47.285Z,213.30
2023-04-27T05:19:47.306Z,214.71
2023-04-27T05:20:47.375Z,215.44
2023-04-27T05:21:47.478Z,214.26
2023-04-27T05:22:47.516Z,213.79
2023-04-27T05:23:47.576Z,213.72
2023-04-27T05:24:47.602Z,214.04
2023-04-27T05:25:47.705Z,213.89
2023-04-27T05:26:47.822Z,211.02
2023-04-27T05:27:47.806Z,211.67
2023-04-27T05:28:47.789Z,210.94
2023-04-27T05:29:47.789Z,207.70
2023-04-27T05:30:47.810Z,207.48
2023-04-27T05:31:47.853Z,204.52
2023-04-27T05:32:47.844Z,204.75
2023-04-27T05:33:48.129Z,204.30
2023-04-27T05:34:49.421Z,201.60
2023-04-27T05:35:47.759Z,206.20
2023-04-27T05:36:47.819Z,208.69
2023-04-27T05:37:47.796Z,212.01
2023-04-27T05:38:47.829Z,214.27
2023-04-27T05:39:47.833Z,219.70
2023-04-27T05:40:47.964Z,229.92
2023-04-27T05:41:47.994Z,239.37
2023-04-27T05:42:47.991Z,250.00
2023-04-27T05:43:48.053Z,247.94
2023-04-27T05:44:48.155Z,245.75
2023-04-27T05:45:48.200Z,246.15
2023-04-27T05:46:48.215Z,248.91
2023-04-27T05:47:48.349Z,239.23
2023-04-27T05:48:48.403Z,235.77
2023-04-27T05:49:48.357Z,234.82
2023-04-27T05:50:48.398Z,228.76
2023-04-27T05:51:48.438Z,230.47
2023-04-27T05:52:48.659Z,221.89
2023-04-27T05:53:48.531Z,219.32
2023-04-27T05:54:48.561Z,227.65
2023-04-27T05:55:48.572Z,228.64
2023-04-27T05:56:48.624Z,231.88
2023-04-27T05:57:57.195Z,235.86
2023-04-27T05:58:49.681Z,235.92
2023-04-27T05:59:48.713Z,233.91
2023-04-27T06:00:48.744Z,227.60
2023-04-27T06:01:48.793Z,229.62
2023-04-27T06:02:49.353Z,232.32
2023-04-27T06:03:49.030Z,237.24
2023-04-27T06:04:48.846Z,227.54
2023-04-27T06:05:48.952Z,229.61
2023-04-27T06:06:48.878Z,222.01
2023-04-27T06:07:48.962Z,227.58
2023-04-27T06:08:48.955Z,229.28
2023-04-27T06:09:48.969Z,223.63
2023-04-27T06:10:49.018Z,228.64
2023-04-27T06:11:49.045Z,231.60
2023-04-27T06:12:49.172Z,234.46
2023-04-27T06:13:49.094Z,236.39
2023-04-27T06:14:49.154Z,231.00
2023-04-27T06:15:49.215Z,217.67
2023-04-27T06:16:49.169Z,209.79
2023-04-27T06:17:49.251Z,218.20
2023-04-27T06:18:49.236Z,214.63
2023-04-27T06:19:49.270Z,218.94
2023-04-27T06:20:49.304Z,213.34
2023-04-27T06:21:49.308Z,213.96
2023-04-27T06:22:49.334Z,216.63
2023-04-27T06:23:49.377Z,217.58
2023-04-27T06:24:49.416Z,219.12
2023-04-27T06:25:49.452Z,223.56
2023-04-27T06:26:49.799Z,228.53
2023-04-27T06:27:49.523Z,230.95
2023-04-27T06:28:49.540Z,235.06
2023-04-27T06:29:49.608Z,237.67
2023-04-27T06:30:49.597Z,237.78
2023-04-27T06:31:49.649Z,237.92
2023-04-27T06:32:49.668Z,234.36
2023-04-27T06:33:49.636Z,235.35
2023-04-27T06:34:49.687Z,236.10
2023-04-27T06:35:49.739Z,235.74
2023-04-27T06:36:49.702Z,238.00
2023-04-27T06:37:49.769Z,236.13
2023-04-27T06:38:49.775Z,231.88
2023-04-27T06:39:49.806Z,221.99
2023-04-27T06:40:49.795Z,224.13
2023-04-27T06:41:49.825Z,216.83
2023-04-27T06:42:49.915Z,208.41
2023-04-27T06:43:49.883Z,209.66
2023-04-27T06:44:49.917Z,211.47
2023-04-27T06:45:49.976Z,216.12
2023-04-27T06:46:49.969Z,217.95
2023-04-27T06:47:50.034Z,219.27
2023-04-27T06:48:50.033Z,221.57
2023-04-27T06:49:50.122Z,220.72
2023-04-27T06:50:50.072Z,220.86
2023-04-27T06:51:50.075Z,222.48
2023-04-27T06:52:50.107Z,225.49
2023-04-27T06:53:50.190Z,224.86
2023-04-27T06:54:50.177Z,225.70
2023-04-27T06:55:50.198Z,222.93
2023-04-27T06:56:50.207Z,221.81
2023-04-27T06:57:50.259Z,221.42
2023-04-27T06:58:50.306Z,210.17
2023-04-27T06:59:50.283Z,205.42
2023-04-27T07:00:50.281Z,206.38
2023-04-27T07:01:50.424Z,202.06
2023-04-27T07:02:50.389Z,204.63
2023-04-27T07:03:50.555Z,209.35
2023-04-27T07:04:50.473Z,202.97
2023-04-27T07:05:50.447Z,196.95
2023-04-27T07:06:50.494Z,170.01
2023-04-27T07:07:50.497Z,189.80
2023-04-27T07:08:50.539Z,197.81
2023-04-27T07:09:50.530Z,200.42
2023-04-27T07:10:50.641Z,203.55
2023-04-27T07:11:50.629Z,204.51
2023-04-27T07:12:50.724Z,205.72
2023-04-27T07:13:51.669Z,205.39
2023-04-27T07:14:50.763Z,203.95
2023-04-27T07:15:50.814Z,205.62
2023-04-27T07:16:50.798Z,204.52
2023-04-27T07:17:50.889Z,203.88
2023-04-27T07:18:50.853Z,205.70
2023-04-27T07:19:50.887Z,202.44
2023-04-27T07:20:50.921Z,199.92
2023-04-27T07:21:50.927Z,194.59
2023-04-27T07:22:50.988Z,191.53
2023-04-27T07:23:50.976Z,192.05
2023-04-27T07:24:51.003Z,196.70
2023-04-27T07:25:51.070Z,199.62
2023-04-27T07:26:51.038Z,203.19
2023-04-27T07:27:51.147Z,205.16
2023-04-27T07:28:51.112Z,205.66
2023-04-27T07:29:51.150Z,207.83
2023-04-27T07:30:51.167Z,210.15
2023-04-27T07:31:52.358Z,214.56
2023-04-27T07:32:51.247Z,212.98
2023-04-27T07:33:51.213Z,210.31
2023-04-27T07:34:54.045Z,207.63
2023-04-27T07:35:51.258Z,206.19
2023-04-27T07:36:51.222Z,208.01
2023-04-27T07:37:51.237Z,205.32
2023-04-27T07:38:51.230Z,205.30
2023-04-27T07:39:51.216Z,202.51
2023-04-27T07:40:51.217Z,200.65
2023-04-27T07:41:51.196Z,200.16
2023-04-27T07:42:51.199Z,198.84
2023-04-27T07:43:51.243Z,199.80
2023-04-27T07:44:51.381Z,199.15
2023-04-27T07:45:51.220Z,202.07
2023-04-27T07:46:51.191Z,202.24
2023-04-27T07:47:51.167Z,200.20
2023-04-27T07:48:51.172Z,202.28
2023-04-27T07:49:51.154Z,205.13
2023-04-27T07:50:51.158Z,205.23
2023-04-27T07:51:51.107Z,206.09
2023-04-27T07:52:51.129Z,204.89
2023-04-27T07:53:51.147Z,209.36
2023-04-27T07:54:51.131Z,211.41
2023-04-27T07:55:51.112Z,213.03
2023-04-27T07:56:51.117Z,218.18
2023-04-27T07:57:51.103Z,223.13
2023-04-27T07:58:51.073Z,222.88
2023-04-27T07:59:51.122Z,222.65
2023-04-27T08:00:51.092Z,226.42
2023-04-27T08:01:51.070Z,228.57
2023-04-27T08:02:51.332Z,229.56
2023-04-27T08:03:51.286Z,230.59
2023-04-27T08:04:51.278Z,229.66
2023-04-27T08:05:51.611Z,231.85
2023-04-27T08:06:51.609Z,231.49
2023-04-27T08:07:51.298Z,230.13
2023-04-27T08:08:51.046Z,236.49
2023-04-27T08:09:51.036Z,228.92
2023-04-27T08:10:51.011Z,228.40
2023-04-27T08:11:50.998Z,219.31
2023-04-27T08:12:51.027Z,228.10
2023-04-27T08:13:50.978Z,233.57
2023-04-27T08:14:50.975Z,238.13
2023-04-27T08:15:50.976Z,236.16
2023-04-27T08:16:51.050Z,234.40
2023-04-27T08:17:51.052Z,226.75
2023-04-27T08:18:50.975Z,231.23
2023-04-27T08:19:50.917Z,230.02
2023-04-27T08:20:50.951Z,231.34
2023-04-27T08:21:50.979Z,220.52
2023-04-27T08:22:50.943Z,220.31
2023-04-27T08:23:50.931Z,217.62
2023-04-27T08:24:50.918Z,213.46
2023-04-27T08:25:50.910Z,212.89
2023-04-27T08:26:50.888Z,209.65
2023-04-27T08:27:50.948Z,213.61
2023-04-27T08:28:50.867Z,217.83
2023-04-27T08:29:50.860Z,220.39
2023-04-27T08:30:50.888Z,215.55
2023-04-27T08:31:50.903Z,222.36
2023-04-27T08:32:50.872Z,230.10
2023-04-27T08:33:50.869Z,236.38
2023-04-27T08:34:50.836Z,230.99
2023-04-27T08:35:50.842Z,219.54
2023-04-27T08:36:50.839Z,235.16
2023-04-27T08:37:50.831Z,236.24
2023-04-27T08:38:50.826Z,221.82
2023-04-27T08:39:50.880Z,221.90
2023-04-27T08:40:50.777Z,224.31
2023-04-27T08:41:50.800Z,230.41
2023-04-27T08:42:50.793Z,232.87
2023-04-27T08:43:50.795Z,237.11
2023-04-27T08:44:50.749Z,237.01
2023-04-27T08:45:51.022Z,237.80
2023-04-27T08:46:50.824Z,235.85
2023-04-27T08:47:50.739Z,234.58
2023-04-27T08:48:50.743Z,218.01
2023-04-27T08:49:50.721Z,210.76
2023-04-27T08:50:50.720Z,216.84
2023-04-27T08:51:50.763Z,210.98
2023-04-27T08:52:50.705Z,208.23
2023-04-27T08:53:50.737Z,202.47
2023-04-27T08:54:50.705Z,208.73
2023-04-27T08:55:50.701Z,218.31
2023-04-27T08:56:50.689Z,222.48
2023-04-27T08:57:50.719Z,233.70
2023-04-27T08:58:50.691Z,230.87
2023-04-27T08:59:50.673Z,231.56
2023-04-27T09:00:52.426Z,230.15
2023-04-27T09:01:50.695Z,230.70
2023-04-27T09:02:50.765Z,237.22
2023-04-27T09:03:50.695Z,250.00
2023-04-27T09:04:50.713Z,249.92
2023-04-27T09:06:03.618Z,247.15
2023-04-27T09:06:51.595Z,247.44
2023-04-27T09:07:50.596Z,248.03
2023-04-27T09:08:50.617Z,250.56
2023-04-27T09:09:50.571Z,252.18
2023-04-27T09:10:50.589Z,266.96
2023-04-27T09:11:50.591Z,249.12
2023-04-27T09:12:50.553Z,238.48
2023-04-27T09:13:50.567Z,236.67
2023-04-27T09:14:50.555Z,242.65
2023-04-27T09:15:50.629Z,244.89
2023-04-27T09:16:50.606Z,246.74
2023-04-27T09:17:50.609Z,233.72
2023-04-27T09:18:50.648Z,212.90
2023-04-27T09:19:50.634Z,222.01
2023-04-27T09:20:50.768Z,186.77
2023-04-27T09:21:50.758Z,171.48
2023-04-27T09:22:50.820Z,158.21
2023-04-27T09:23:50.901Z,169.36
2023-04-27T09:24:50.927Z,180.25
2023-04-27T09:25:50.985Z,179.54
2023-04-27T09:26:51.031Z,173.96
2023-04-27T09:27:51.082Z,171.82
2023-04-27T09:28:51.136Z,177.01
2023-04-27T09:29:51.162Z,174.00
2023-04-27T09:30:51.223Z,177.21
2023-04-27T09:31:51.342Z,180.01
2023-04-27T09:32:51.339Z,169.14
2023-04-27T09:33:51.371Z,174.16
2023-04-27T09:34:51.452Z,186.89
2023-04-27T09:35:51.494Z,189.24
2023-04-27T09:36:51.527Z,182.10
2023-04-27T09:37:51.582Z,190.34
2023-04-27T09:38:51.664Z,183.06
2023-04-27T09:39:51.699Z,160.67
2023-04-27T09:40:51.787Z,170.42
2023-04-27T09:41:51.816Z,166.78
2023-04-27T09:42:51.865Z,173.93
2023-04-27T09:43:51.916Z,169.65
2023-04-27T09:44:51.978Z,167.88
2023-04-27T09:45:52.057Z,146.84
2023-04-27T09:46:52.054Z,145.25
2023-04-27T09:47:52.128Z,152.17
2023-04-27T09:48:52.126Z,140.41
2023-04-27T09:49:52.163Z,151.01
2023-04-27T09:50:52.245Z,155.50
2023-04-27T09:51:52.245Z,172.76
2023-04-27T09:52:52.296Z,176.18
2023-04-27T09:53:52.361Z,181.89
2023-04-27T09:54:52.368Z,184.96
2023-04-27T09:55:52.419Z,194.31
2023-04-27T09:56:52.477Z,191.93
2023-04-27T09:57:52.510Z,186.59
2023-04-27T09:58:52.569Z,184.17
2023-04-27T09:59:52.588Z,181.79
2023-04-27T10:00:52.714Z,180.12
2023-04-27T10:01:52.663Z,180.50
2023-04-27T10:02:53.790Z,148.70
2023-04-27T10:03:52.953Z,147.09
2023-04-27T10:04:52.927Z,135.36
2023-04-27T10:05:52.869Z,123.35
2023-04-27T10:06:52.902Z,114.13
2023-04-27T10:07:52.969Z,132.48
2023-04-27T10:08:53.087Z,140.07
2023-04-27T10:09:53.128Z,137.08
2023-04-27T10:10:53.196Z,114.69
2023-04-27T10:11:53.269Z,102.33
2023-04-27T10:12:53.289Z,101.44
2023-04-27T10:13:54.376Z,96.66
2023-04-27T10:14:53.395Z,101.08
2023-04-27T10:15:53.468Z,105.05
2023-04-27T10:16:53.566Z,104.84
2023-04-27T10:17:53.647Z,107.17
2023-04-27T10:18:53.624Z,100.48
2023-04-27T10:19:55.088Z,98.51
2023-04-27T10:20:53.695Z,110.28
2023-04-27T10:21:53.688Z,121.63
2023-04-27T10:22:53.705Z,118.30
2023-04-27T10:23:53.647Z,125.07
2023-04-27T10:24:53.673Z,129.43
2023-04-27T10:25:53.641Z,142.62
2023-04-27T10:26:53.656Z,126.54
2023-04-27T10:27:53.668Z,131.56
2023-04-27T10:28:53.624Z,130.86
2023-04-27T10:29:53.632Z,111.15
2023-04-27T10:30:53.632Z,127.14
2023-04-27T10:31:53.618Z,142.27
2023-04-27T10:32:53.701Z,152.85
2023-04-27T10:33:53.608Z,160.99
2023-04-27T10:34:53.586Z,163.94
2023-04-27T10:35:53.622Z,161.71
2023-04-27T10:36:53.550Z,166.09
2023-04-27T10:37:53.554Z,167.01
2023-04-27T10:38:53.573Z,163.84
2023-04-27T10:39:54.879Z,162.44
2023-04-27T10:40:53.543Z,161.94
2023-04-27T10:41:53.541Z,160.34
2023-04-27T10:42:53.510Z,157.67
2023-04-27T10:43:53.537Z,159.10
2023-04-27T10:44:53.503Z,152.75
2023-04-27T10:45:53.572Z,87.58
2023-04-27T10:46:53.488Z,126.31
2023-04-27T10:47:53.607Z,125.83
2023-04-27T10:48:53.499Z,122.18
2023-04-27T10:49:53.482Z,125.21
2023-04-27T10:50:53.467Z,127.99
2023-04-27T10:51:53.459Z,129.28
2023-04-27T10:52:53.459Z,123.95
2023-04-27T10:53:53.480Z,123.19
2023-04-27T10:54:53.512Z,127.02
2023-04-27T10:55:53.620Z,127.22
2023-04-27T10:56:53.722Z,119.01
2023-04-27T10:57:53.686Z,122.14
2023-04-27T10:58:53.728Z,84.19
2023-04-27T10:59:53.826Z,94.61
2023-04-27T11:00:53.860Z,103.83
2023-04-27T11:01:53.984Z,103.23
2023-04-27T11:02:54.134Z,105.13
2023-04-27T11:03:54.125Z,111.16
2023-04-27T11:04:54.170Z,102.61
2023-04-27T11:06:54.272Z,106.34
2023-04-27T11:07:54.311Z,106.14
2023-04-27T11:08:54.358Z,102.31
2023-04-27T11:09:54.433Z,99.12
2023-04-27T11:10:54.443Z,96.84
2023-04-27T11:11:54.522Z,95.36
2023-04-27T11:12:54.549Z,101.26
2023-04-27T11:13:54.642Z,106.10
2023-04-27T11:14:54.665Z,103.61
2023-04-27T11:15:54.781Z,98.94
2023-04-27T11:16:54.838Z,98.58
2023-04-27T11:17:54.930Z,101.92
2023-04-27T11:18:54.948Z,106.74
2023-04-27T11:19:54.970Z,99.34
2023-04-27T11:20:55.087Z,104.45
2023-04-27T11:21:55.080Z,94.49
2023-04-27T11:22:55.165Z,79.60
2023-04-27T11:23:55.251Z,63.11
2023-04-27T11:24:55.283Z,79.30
2023-04-27T11:25:55.363Z,84.51
2023-04-27T11:26:55.426Z,80.23
2023-04-27T11:27:55.422Z,59.53
2023-04-27T11:28:55.490Z,51.87
2023-04-27T11:29:55.526Z,74.70
2023-04-27T11:30:55.578Z,89.73
2023-04-27T11:31:55.709Z,98.48
2023-04-27T11:32:55.682Z,109.55
2023-04-27T11:33:56.030Z,110.87
2023-04-27T11:34:58.416Z,94.22
2023-04-27T11:35:55.722Z,49.21
2023-04-27T11:37:03.461Z,19.33
2023-04-27T11:37:56.739Z,20.03
2023-04-27T11:38:55.764Z,19.62
2023-04-27T11:39:55.799Z,11.32
2023-04-27T11:40:55.687Z,21.17
2023-04-27T11:41:55.703Z,15.57
2023-04-27T11:42:55.722Z,25.00
2023-04-27T11:43:55.683Z,52.91
2023-04-27T11:44:55.664Z,62.78
2023-04-27T11:45:55.678Z,68.78
2023-04-27T11:46:55.717Z,74.79
2023-04-27T11:47:55.703Z,78.71
2023-04-27T11:48:55.719Z,86.38
2023-04-27T11:49:55.760Z,88.26
2023-04-27T11:50:55.788Z,94.24
2023-04-27T11:51:55.874Z,94.82
2023-04-27T11:52:55.941Z,91.46
2023-04-27T11:53:55.952Z,90.66
2023-04-27T11:54:56.026Z,89.34
2023-04-27T11:55:56.043Z,87.42
2023-04-27T11:56:56.124Z,86.92
2023-04-27T11:57:56.158Z,86.42
2023-04-27T11:58:56.279Z,87.78
2023-04-27T11:59:56.231Z,89.45
2023-04-27T12:00:56.285Z,80.85
2023-04-27T12:01:56.359Z,84.33
2023-04-27T12:02:56.524Z,88.42
2023-04-27T12:03:57.562Z,90.86
2023-04-27T12:04:56.819Z,94.35
2023-04-27T12:06:56.423Z,98.51
2023-04-27T12:07:56.417Z,103.52
2023-04-27T12:08:56.406Z,99.75
2023-04-27T12:09:56.915Z,96.22
2023-04-27T12:10:56.369Z,100.84
2023-04-27T12:11:56.423Z,101.81
2023-04-27T12:12:56.390Z,101.47
2023-04-27T12:13:56.367Z,98.66
2023-04-27T12:14:56.390Z,95.77
2023-04-27T12:15:56.572Z,95.90
2023-04-27T12:16:56.450Z,95.59
2023-04-27T12:17:56.392Z,97.54
2023-04-27T12:18:56.331Z,99.43
2023-04-27T12:19:56.293Z,100.63
2023-04-27T12:20:56.315Z,105.12
2023-04-27T12:21:56.282Z,108.40
2023-04-27T12:22:56.302Z,101.23
2023-04-27T12:23:56.316Z,104.58
2023-04-27T12:24:56.314Z,117.07
2023-04-27T12:25:56.274Z,106.73
2023-04-27T12:26:56.318Z,51.71
2023-04-27T12:27:56.360Z,87.68
2023-04-27T12:28:56.397Z,98.64
2023-04-27T12:29:56.486Z,101.99
2023-04-27T12:30:56.528Z,104.28
2023-04-27T12:31:56.553Z,109.34
2023-04-27T12:32:56.608Z,101.33